WIF8VA ENZV-EGPD
Flight info
| Callsign | WIF8VA |
|---|---|
| Flight time | 1h 9m |
| Altitude | 24000 |
| Route | LAPOT DCT KLONN DCT OVDAN P600 ADN |
| Aircraft | DH8D/M-SDE2E3FGRY/H |
Departure
| Time | 2026-05-05 16:29 |
|---|---|
| Airport | Stavanger Airport, Sola (ENZV) |
Arrival
| Time | 2026-05-05 17:39 |
|---|---|
| Airport | Aberdeen International Airport (EGPD) |
| Time | Latitude | Longitude | Altitude | Speed | Heading |
|---|---|---|---|---|---|
| 2026-05-05 15:51 | 58.88093 | 5.62600 | 25 ft | 0 kts | 54° |
| 2026-05-05 16:17 | 58.88090 | 5.62593 | 25 ft | 2 kts | 54° |
| 2026-05-05 16:17 | 58.88081 | 5.62570 | 25 ft | 2 kts | 55° |
| 2026-05-05 16:18 | 58.88069 | 5.62519 | 24 ft | 2 kts | 96° |
| 2026-05-05 16:18 | 58.88074 | 5.62493 | 24 ft | 1 kts | 130° |
| 2026-05-05 16:18 | 58.88077 | 5.62487 | 24 ft | 0 kts | 135° |
| 2026-05-05 16:23 | 58.88070 | 5.62501 | 24 ft | 2 kts | 134° |
| 2026-05-05 16:23 | 58.88050 | 5.62542 | 25 ft | 4 kts | 130° |
| 2026-05-05 16:23 | 58.88010 | 5.62688 | 25 ft | 7 kts | 106° |
| 2026-05-05 16:24 | 58.87995 | 5.62786 | 26 ft | 7 kts | 107° |
| 2026-05-05 16:24 | 58.87989 | 5.62891 | 27 ft | 8 kts | 80° |
| 2026-05-05 16:24 | 58.87972 | 5.63151 | 28 ft | 11 kts | 107° |
| 2026-05-05 16:25 | 58.87946 | 5.63301 | 29 ft | 12 kts | 125° |
| 2026-05-05 16:25 | 58.87778 | 5.63289 | 29 ft | 13 kts | 178° |
| 2026-05-05 16:25 | 58.87680 | 5.63288 | 30 ft | 14 kts | 179° |
| 2026-05-05 16:26 | 58.87432 | 5.63295 | 30 ft | 29 kts | 178° |
| 2026-05-05 16:26 | 58.87060 | 5.63309 | 32 ft | 16 kts | 169° |
| 2026-05-05 16:27 | 58.86996 | 5.63455 | 33 ft | 14 kts | 94° |
| 2026-05-05 16:27 | 58.87007 | 5.63545 | 34 ft | 0 kts | 57° |
| 2026-05-05 16:27 | 58.87008 | 5.63545 | 34 ft | 0 kts | 58° |
| 2026-05-05 16:27 | 58.87022 | 5.63603 | 35 ft | 10 kts | 65° |
| 2026-05-05 16:28 | 58.87072 | 5.63782 | 35 ft | 18 kts | 53° |
| 2026-05-05 16:28 | 58.87117 | 5.63800 | 35 ft | 0 kts | 359° |
| 2026-05-05 16:28 | 58.87118 | 5.63800 | 35 ft | 0 kts | 359° |
| 2026-05-05 16:29 | 58.87128 | 5.63799 | 35 ft | 0 kts | 358° |
| 2026-05-05 16:29 | 58.87349 | 5.63789 | 34 ft | 80 kts | 359° |
| 2026-05-05 16:29 | 58.88145 | 5.63783 | 75 ft | 139 kts | 358° |
| 2026-05-05 16:29 | 58.89158 | 5.63866 | 649 ft | 150 kts | 2° |
| 2026-05-05 16:30 | 58.90167 | 5.64086 | 1446 ft | 150 kts | 7° |
| 2026-05-05 16:30 | 58.91229 | 5.64372 | 2003 ft | 167 kts | 2° |
| 2026-05-05 16:30 | 58.92394 | 5.64300 | 2762 ft | 169 kts | 354° |
| 2026-05-05 16:30 | 58.93560 | 5.64126 | 3398 ft | 172 kts | 355° |
| 2026-05-05 16:31 | 58.94733 | 5.63988 | 4035 ft | 174 kts | 355° |
| 2026-05-05 16:31 | 58.95937 | 5.63873 | 4696 ft | 175 kts | 356° |
| 2026-05-05 16:31 | 58.97133 | 5.63780 | 5359 ft | 175 kts | 356° |
| 2026-05-05 16:31 | 58.98344 | 5.63699 | 5996 ft | 177 kts | 356° |
| 2026-05-05 16:32 | 58.99564 | 5.63631 | 6664 ft | 178 kts | 356° |
| 2026-05-05 16:32 | 59.00782 | 5.63570 | 7304 ft | 180 kts | 355° |
| 2026-05-05 16:32 | 59.02043 | 5.63514 | 7952 ft | 183 kts | 355° |
| 2026-05-05 16:32 | 59.03297 | 5.63462 | 8629 ft | 184 kts | 355° |
| 2026-05-05 16:33 | 59.04565 | 5.63413 | 9283 ft | 187 kts | 355° |
| 2026-05-05 16:33 | 59.05876 | 5.63352 | 9858 ft | 195 kts | 352° |
| 2026-05-05 16:33 | 59.07143 | 5.62381 | 10176 ft | 201 kts | 313° |
| 2026-05-05 16:33 | 59.07663 | 5.59917 | 10695 ft | 207 kts | 277° |
| 2026-05-05 16:34 | 59.07657 | 5.57114 | 11386 ft | 209 kts | 272° |
| 2026-05-05 16:34 | 59.07621 | 5.54273 | 12076 ft | 211 kts | 272° |
| 2026-05-05 16:34 | 59.07586 | 5.51454 | 12754 ft | 212 kts | 272° |
| 2026-05-05 16:34 | 59.07525 | 5.48566 | 13450 ft | 214 kts | 267° |
| 2026-05-05 16:35 | 59.06878 | 5.45945 | 13982 ft | 231 kts | 230° |
| 2026-05-05 16:35 | 59.05383 | 5.44628 | 14503 ft | 251 kts | 194° |
| 2026-05-05 16:35 | 59.03628 | 5.44562 | 15091 ft | 257 kts | 187° |
| 2026-05-05 16:35 | 59.01852 | 5.44631 | 15643 ft | 257 kts | 188° |
| 2026-05-05 16:36 | 59.00077 | 5.44698 | 16186 ft | 257 kts | 189° |
| 2026-05-05 16:36 | 58.98287 | 5.44757 | 16693 ft | 258 kts | 190° |
| 2026-05-05 16:36 | 58.96498 | 5.44808 | 17188 ft | 259 kts | 191° |
| 2026-05-05 16:36 | 58.94701 | 5.44853 | 17647 ft | 261 kts | 191° |
| 2026-05-05 16:37 | 58.92906 | 5.44895 | 18128 ft | 261 kts | 192° |
| 2026-05-05 16:37 | 58.91089 | 5.44934 | 18587 ft | 261 kts | 192° |
| 2026-05-05 16:37 | 58.89286 | 5.44972 | 19008 ft | 263 kts | 193° |
| 2026-05-05 16:37 | 58.87452 | 5.45003 | 19410 ft | 264 kts | 192° |
| 2026-05-05 16:38 | 58.85609 | 5.45038 | 19816 ft | 266 kts | 193° |
| 2026-05-05 16:38 | 58.83774 | 5.45071 | 20219 ft | 266 kts | 193° |
| 2026-05-05 16:38 | 58.81905 | 5.45102 | 20552 ft | 268 kts | 192° |
| 2026-05-05 16:38 | 58.80046 | 5.45137 | 20928 ft | 269 kts | 193° |
| 2026-05-05 16:39 | 58.78188 | 5.45167 | 21243 ft | 271 kts | 193° |
| 2026-05-05 16:39 | 58.76308 | 5.45172 | 21563 ft | 268 kts | 196° |
| 2026-05-05 16:39 | 58.74645 | 5.44209 | 21806 ft | 238 kts | 227° |
| 2026-05-05 16:39 | 58.73745 | 5.41819 | 21984 ft | 219 kts | 256° |
| 2026-05-05 16:40 | 58.73307 | 5.38995 | 22244 ft | 220 kts | 259° |
| 2026-05-05 16:40 | 58.72922 | 5.36155 | 22501 ft | 221 kts | 260° |
| 2026-05-05 16:40 | 58.72564 | 5.33271 | 22784 ft | 222 kts | 260° |
| 2026-05-05 16:40 | 58.72228 | 5.30412 | 23037 ft | 223 kts | 261° |
| 2026-05-05 16:41 | 58.71898 | 5.27478 | 23323 ft | 224 kts | 261° |
| 2026-05-05 16:41 | 58.71582 | 5.24568 | 23574 ft | 224 kts | 261° |
| 2026-05-05 16:41 | 58.71271 | 5.21650 | 23822 ft | 225 kts | 261° |
| 2026-05-05 16:41 | 58.70958 | 5.18650 | 23966 ft | 230 kts | 261° |
| 2026-05-05 16:42 | 58.70644 | 5.15583 | 23985 ft | 238 kts | 261° |
| 2026-05-05 16:42 | 58.70324 | 5.12436 | 24006 ft | 246 kts | 261° |
| 2026-05-05 16:42 | 58.69994 | 5.09182 | 23995 ft | 254 kts | 261° |
| 2026-05-05 16:42 | 58.69654 | 5.05821 | 24005 ft | 260 kts | 261° |
| 2026-05-05 16:43 | 58.69303 | 5.02348 | 24003 ft | 266 kts | 261° |
| 2026-05-05 16:43 | 58.68950 | 4.98859 | 24002 ft | 270 kts | 261° |
| 2026-05-05 16:43 | 58.68588 | 4.95287 | 23998 ft | 274 kts | 261° |
| 2026-05-05 16:43 | 58.68221 | 4.91670 | 24003 ft | 277 kts | 261° |
| 2026-05-05 16:44 | 58.67853 | 4.88055 | 24010 ft | 280 kts | 261° |
| 2026-05-05 16:44 | 58.67479 | 4.84378 | 23999 ft | 282 kts | 262° |
| 2026-05-05 16:44 | 58.67101 | 4.80671 | 23994 ft | 283 kts | 261° |
| 2026-05-05 16:44 | 58.66724 | 4.76982 | 23997 ft | 285 kts | 261° |
| 2026-05-05 16:45 | 58.66340 | 4.73251 | 24010 ft | 284 kts | 261° |
| 2026-05-05 16:45 | 58.65957 | 4.69531 | 24002 ft | 283 kts | 261° |
| 2026-05-05 16:45 | 58.65579 | 4.65871 | 24005 ft | 282 kts | 261° |
| 2026-05-05 16:45 | 58.65194 | 4.62148 | 24009 ft | 282 kts | 261° |
| 2026-05-05 16:46 | 58.64814 | 4.58487 | 24017 ft | 282 kts | 261° |
| 2026-05-05 16:46 | 58.64433 | 4.54827 | 24009 ft | 282 kts | 261° |
| 2026-05-05 16:46 | 58.64048 | 4.51139 | 24013 ft | 282 kts | 261° |
| 2026-05-05 16:46 | 58.63663 | 4.47461 | 24012 ft | 282 kts | 261° |
| 2026-05-05 16:47 | 58.63282 | 4.43824 | 24008 ft | 282 kts | 261° |
| 2026-05-05 16:47 | 58.62816 | 4.40160 | 24018 ft | 282 kts | 258° |
| 2026-05-05 16:47 | 58.62281 | 4.36530 | 24021 ft | 282 kts | 257° |
| 2026-05-05 16:47 | 58.61747 | 4.32924 | 24014 ft | 283 kts | 257° |
| 2026-05-05 16:48 | 58.61219 | 4.29343 | 24016 ft | 283 kts | 257° |
| 2026-05-05 16:48 | 58.60686 | 4.25714 | 24018 ft | 283 kts | 257° |
| 2026-05-05 16:48 | 58.60150 | 4.22062 | 24021 ft | 283 kts | 257° |
| 2026-05-05 16:48 | 58.59623 | 4.18469 | 24016 ft | 284 kts | 257° |
| 2026-05-05 16:49 | 58.59089 | 4.14829 | 24019 ft | 284 kts | 257° |
| 2026-05-05 16:49 | 58.58561 | 4.11232 | 24018 ft | 284 kts | 257° |
| 2026-05-05 16:49 | 58.58024 | 4.07576 | 24029 ft | 284 kts | 257° |
| 2026-05-05 16:49 | 58.57493 | 4.03967 | 24022 ft | 284 kts | 257° |
| 2026-05-05 16:50 | 58.56956 | 4.00321 | 24027 ft | 284 kts | 257° |
| 2026-05-05 16:50 | 58.56424 | 3.96714 | 24025 ft | 284 kts | 257° |
| 2026-05-05 16:50 | 58.55882 | 3.93049 | 24030 ft | 285 kts | 257° |
| 2026-05-05 16:50 | 58.55345 | 3.89427 | 24035 ft | 285 kts | 257° |
| 2026-05-05 16:51 | 58.54804 | 3.85777 | 24029 ft | 286 kts | 257° |
| 2026-05-05 16:51 | 58.54259 | 3.82114 | 24021 ft | 286 kts | 257° |
| 2026-05-05 16:51 | 58.53717 | 3.78483 | 24036 ft | 286 kts | 257° |
| 2026-05-05 16:51 | 58.53172 | 3.74833 | 24020 ft | 286 kts | 257° |
| 2026-05-05 16:52 | 58.52626 | 3.71183 | 24014 ft | 287 kts | 257° |
| 2026-05-05 16:52 | 58.52082 | 3.67557 | 24022 ft | 287 kts | 257° |
| 2026-05-05 16:52 | 58.51532 | 3.63897 | 24022 ft | 287 kts | 257° |
| 2026-05-05 16:52 | 58.50979 | 3.60227 | 24020 ft | 287 kts | 257° |
| 2026-05-05 16:53 | 58.50424 | 3.56551 | 24022 ft | 287 kts | 257° |
| 2026-05-05 16:53 | 58.49875 | 3.52925 | 24024 ft | 287 kts | 257° |
| 2026-05-05 16:53 | 58.49318 | 3.49258 | 24023 ft | 287 kts | 257° |
| 2026-05-05 16:53 | 58.48759 | 3.45579 | 24022 ft | 288 kts | 257° |
| 2026-05-05 16:54 | 58.48207 | 3.41951 | 24026 ft | 288 kts | 257° |
| 2026-05-05 16:54 | 58.47645 | 3.38272 | 24024 ft | 288 kts | 257° |
| 2026-05-05 16:54 | 58.47087 | 3.34630 | 24029 ft | 288 kts | 256° |
| 2026-05-05 16:54 | 58.46523 | 3.30947 | 24027 ft | 289 kts | 256° |
| 2026-05-05 16:55 | 58.45963 | 3.27303 | 24019 ft | 289 kts | 256° |
| 2026-05-05 16:55 | 58.45394 | 3.23612 | 24027 ft | 290 kts | 256° |
| 2026-05-05 16:55 | 58.44825 | 3.19924 | 24030 ft | 290 kts | 256° |
| 2026-05-05 16:55 | 58.44258 | 3.16256 | 24024 ft | 290 kts | 256° |
| 2026-05-05 16:56 | 58.43686 | 3.12563 | 24027 ft | 291 kts | 256° |
| 2026-05-05 16:56 | 58.43112 | 3.08869 | 24034 ft | 291 kts | 256° |
| 2026-05-05 16:56 | 58.42544 | 3.05220 | 24024 ft | 291 kts | 256° |
| 2026-05-05 16:56 | 58.41969 | 3.01536 | 24027 ft | 291 kts | 256° |
| 2026-05-05 16:57 | 58.41391 | 2.97843 | 24025 ft | 291 kts | 256° |
| 2026-05-05 16:57 | 58.40813 | 2.94156 | 24024 ft | 291 kts | 256° |
| 2026-05-05 16:57 | 58.40234 | 2.90463 | 24031 ft | 291 kts | 256° |
| 2026-05-05 16:57 | 58.39660 | 2.86818 | 24032 ft | 291 kts | 256° |
| 2026-05-05 16:58 | 58.39078 | 2.83132 | 24035 ft | 291 kts | 256° |
| 2026-05-05 16:58 | 58.38451 | 2.79451 | 24026 ft | 292 kts | 254° |
| 2026-05-05 16:58 | 58.37773 | 2.75860 | 24033 ft | 292 kts | 254° |
| 2026-05-05 16:58 | 58.37082 | 2.72220 | 24032 ft | 292 kts | 254° |
| 2026-05-05 16:59 | 58.36392 | 2.68579 | 24031 ft | 292 kts | 254° |
| 2026-05-05 16:59 | 58.35704 | 2.64945 | 24028 ft | 292 kts | 254° |
| 2026-05-05 16:59 | 58.35023 | 2.61345 | 24035 ft | 292 kts | 254° |
| 2026-05-05 16:59 | 58.34336 | 2.57713 | 24030 ft | 292 kts | 254° |
| 2026-05-05 17:00 | 58.33647 | 2.54070 | 24033 ft | 292 kts | 254° |
| 2026-05-05 17:00 | 58.32968 | 2.50486 | 24037 ft | 292 kts | 254° |
| 2026-05-05 17:00 | 58.32280 | 2.46859 | 24035 ft | 292 kts | 253° |
| 2026-05-05 17:00 | 58.31590 | 2.43225 | 24042 ft | 292 kts | 254° |
| 2026-05-05 17:01 | 58.30900 | 2.39600 | 24039 ft | 292 kts | 254° |
| 2026-05-05 17:01 | 58.30218 | 2.36019 | 24041 ft | 292 kts | 254° |
| 2026-05-05 17:01 | 58.29523 | 2.32376 | 24038 ft | 293 kts | 253° |
| 2026-05-05 17:01 | 58.28826 | 2.28732 | 24039 ft | 293 kts | 253° |
| 2026-05-05 17:02 | 58.28131 | 2.25100 | 24036 ft | 294 kts | 253° |
| 2026-05-05 17:02 | 58.27440 | 2.21501 | 24044 ft | 294 kts | 253° |
| 2026-05-05 17:02 | 58.26741 | 2.17864 | 24041 ft | 294 kts | 253° |
| 2026-05-05 17:02 | 58.26038 | 2.14213 | 24046 ft | 294 kts | 253° |
| 2026-05-05 17:03 | 58.25335 | 2.10568 | 24052 ft | 295 kts | 253° |
| 2026-05-05 17:03 | 58.24630 | 2.06924 | 24045 ft | 295 kts | 253° |
| 2026-05-05 17:03 | 58.23932 | 2.03318 | 24045 ft | 295 kts | 253° |
| 2026-05-05 17:03 | 58.23223 | 1.99665 | 24043 ft | 295 kts | 253° |
| 2026-05-05 17:04 | 58.22515 | 1.96023 | 24051 ft | 295 kts | 253° |
| 2026-05-05 17:04 | 58.21814 | 1.92421 | 24051 ft | 295 kts | 253° |
| 2026-05-05 17:04 | 58.21104 | 1.88782 | 24050 ft | 295 kts | 253° |
| 2026-05-05 17:04 | 58.20393 | 1.85145 | 24053 ft | 295 kts | 253° |
| 2026-05-05 17:05 | 58.19679 | 1.81497 | 24059 ft | 296 kts | 253° |
| 2026-05-05 17:05 | 58.18968 | 1.77871 | 24050 ft | 296 kts | 253° |
| 2026-05-05 17:05 | 58.18251 | 1.74225 | 24048 ft | 296 kts | 253° |
| 2026-05-05 17:05 | 58.17532 | 1.70571 | 24055 ft | 296 kts | 253° |
| 2026-05-05 17:06 | 58.16811 | 1.66917 | 24049 ft | 296 kts | 253° |
| 2026-05-05 17:06 | 58.16100 | 1.63318 | 24056 ft | 296 kts | 253° |
| 2026-05-05 17:06 | 58.15376 | 1.59664 | 24055 ft | 296 kts | 253° |
| 2026-05-05 17:06 | 58.14654 | 1.56019 | 24050 ft | 296 kts | 253° |
| 2026-05-05 17:07 | 58.13935 | 1.52403 | 24046 ft | 297 kts | 253° |
| 2026-05-05 17:07 | 58.13209 | 1.48759 | 24051 ft | 297 kts | 253° |
| 2026-05-05 17:07 | 58.12481 | 1.45102 | 24047 ft | 297 kts | 253° |
| 2026-05-05 17:07 | 58.11760 | 1.41495 | 24048 ft | 297 kts | 253° |
| 2026-05-05 17:08 | 58.11028 | 1.37839 | 24052 ft | 297 kts | 253° |
| 2026-05-05 17:08 | 58.10296 | 1.34187 | 24055 ft | 297 kts | 252° |
| 2026-05-05 17:08 | 58.09571 | 1.30584 | 24050 ft | 297 kts | 252° |
| 2026-05-05 17:08 | 58.08831 | 1.26908 | 24055 ft | 298 kts | 252° |
| 2026-05-05 17:09 | 58.08105 | 1.23304 | 24061 ft | 298 kts | 252° |
| 2026-05-05 17:09 | 58.07366 | 1.19648 | 24057 ft | 298 kts | 252° |
| 2026-05-05 17:09 | 58.06625 | 1.15986 | 24065 ft | 298 kts | 252° |
| 2026-05-05 17:09 | 58.05893 | 1.12373 | 24064 ft | 298 kts | 252° |
| 2026-05-05 17:10 | 58.05148 | 1.08708 | 24069 ft | 298 kts | 252° |
| 2026-05-05 17:10 | 58.04406 | 1.05060 | 24064 ft | 298 kts | 252° |
| 2026-05-05 17:10 | 58.03668 | 1.01441 | 24070 ft | 298 kts | 252° |
| 2026-05-05 17:10 | 58.02926 | 0.97806 | 24072 ft | 298 kts | 252° |
| 2026-05-05 17:11 | 58.02174 | 0.94132 | 24067 ft | 298 kts | 252° |
| 2026-05-05 17:11 | 58.01431 | 0.90507 | 24067 ft | 298 kts | 252° |
| 2026-05-05 17:11 | 58.00685 | 0.86872 | 24068 ft | 298 kts | 252° |
| 2026-05-05 17:11 | 57.99941 | 0.83259 | 24068 ft | 298 kts | 252° |
| 2026-05-05 17:12 | 57.99190 | 0.79615 | 24065 ft | 298 kts | 252° |
| 2026-05-05 17:12 | 57.98447 | 0.76018 | 24072 ft | 298 kts | 252° |
| 2026-05-05 17:12 | 57.97689 | 0.72352 | 24075 ft | 298 kts | 252° |
| 2026-05-05 17:12 | 57.96941 | 0.68738 | 24067 ft | 298 kts | 252° |
| 2026-05-05 17:13 | 57.96185 | 0.65095 | 24068 ft | 299 kts | 252° |
| 2026-05-05 17:13 | 57.95435 | 0.61485 | 24075 ft | 299 kts | 252° |
| 2026-05-05 17:13 | 57.94676 | 0.57844 | 24071 ft | 299 kts | 252° |
| 2026-05-05 17:13 | 57.93918 | 0.54211 | 24068 ft | 299 kts | 252° |
| 2026-05-05 17:14 | 57.93166 | 0.50614 | 24069 ft | 299 kts | 252° |
| 2026-05-05 17:14 | 57.92403 | 0.46972 | 24074 ft | 300 kts | 252° |
| 2026-05-05 17:14 | 57.91645 | 0.43361 | 24073 ft | 300 kts | 252° |
| 2026-05-05 17:14 | 57.90877 | 0.39707 | 24069 ft | 300 kts | 252° |
| 2026-05-05 17:15 | 57.90110 | 0.36061 | 24069 ft | 299 kts | 252° |
| 2026-05-05 17:15 | 57.89350 | 0.32459 | 24072 ft | 299 kts | 251° |
| 2026-05-05 17:15 | 57.88580 | 0.28815 | 24070 ft | 300 kts | 251° |
| 2026-05-05 17:15 | 57.87680 | 0.25273 | 24071 ft | 302 kts | 244° |
| 2026-05-05 17:16 | 57.86614 | 0.21931 | 24069 ft | 304 kts | 243° |
| 2026-05-05 17:16 | 57.85509 | 0.18533 | 24065 ft | 304 kts | 243° |
| 2026-05-05 17:16 | 57.84412 | 0.15163 | 24068 ft | 304 kts | 243° |
| 2026-05-05 17:16 | 57.83315 | 0.11792 | 24069 ft | 304 kts | 243° |
| 2026-05-05 17:17 | 57.82217 | 0.08420 | 24067 ft | 304 kts | 243° |
| 2026-05-05 17:17 | 57.81113 | 0.05030 | 24063 ft | 304 kts | 243° |
| 2026-05-05 17:17 | 57.80019 | 0.01674 | 24072 ft | 304 kts | 243° |
| 2026-05-05 17:17 | 57.78913 | -0.01719 | 24074 ft | 304 kts | 243° |
| 2026-05-05 17:18 | 57.77799 | -0.05131 | 24071 ft | 304 kts | 243° |
| 2026-05-05 17:18 | 57.76702 | -0.08485 | 24069 ft | 304 kts | 243° |
| 2026-05-05 17:18 | 57.75595 | -0.11870 | 24073 ft | 305 kts | 243° |
| 2026-05-05 17:18 | 57.74493 | -0.15233 | 24072 ft | 305 kts | 243° |
| 2026-05-05 17:19 | 57.73386 | -0.18609 | 24071 ft | 305 kts | 243° |
| 2026-05-05 17:19 | 57.72293 | -0.21936 | 24077 ft | 305 kts | 243° |
| 2026-05-05 17:19 | 57.71183 | -0.25311 | 24073 ft | 305 kts | 243° |
| 2026-05-05 17:19 | 57.70075 | -0.28674 | 24067 ft | 305 kts | 243° |
| 2026-05-05 17:20 | 57.68970 | -0.32034 | 24077 ft | 305 kts | 243° |
| 2026-05-05 17:20 | 57.67869 | -0.35408 | 24076 ft | 305 kts | 243° |
| 2026-05-05 17:20 | 57.66763 | -0.38783 | 24077 ft | 305 kts | 243° |
| 2026-05-05 17:20 | 57.65642 | -0.42149 | 24085 ft | 306 kts | 243° |
| 2026-05-05 17:21 | 57.64526 | -0.45498 | 24078 ft | 306 kts | 243° |
| 2026-05-05 17:21 | 57.63414 | -0.48833 | 24077 ft | 305 kts | 243° |
| 2026-05-05 17:21 | 57.62289 | -0.52207 | 24080 ft | 305 kts | 243° |
| 2026-05-05 17:22 | 57.60053 | -0.58904 | 24081 ft | 305 kts | 243° |
| 2026-05-05 17:22 | 57.58933 | -0.62253 | 24079 ft | 305 kts | 243° |
| 2026-05-05 17:22 | 57.57809 | -0.65610 | 24077 ft | 305 kts | 242° |
| 2026-05-05 17:22 | 57.56693 | -0.68942 | 23975 ft | 306 kts | 242° |
| 2026-05-05 17:23 | 57.55570 | -0.72281 | 23625 ft | 303 kts | 242° |
| 2026-05-05 17:23 | 57.54459 | -0.75562 | 23188 ft | 294 kts | 242° |
| 2026-05-05 17:23 | 57.53392 | -0.78712 | 22730 ft | 288 kts | 242° |
| 2026-05-05 17:23 | 57.52336 | -0.81834 | 22265 ft | 283 kts | 242° |
| 2026-05-05 17:24 | 57.51311 | -0.84866 | 21815 ft | 278 kts | 242° |
| 2026-05-05 17:24 | 57.50294 | -0.87871 | 21366 ft | 274 kts | 242° |
| 2026-05-05 17:24 | 57.49285 | -0.90853 | 20922 ft | 270 kts | 242° |
| 2026-05-05 17:24 | 57.48296 | -0.93771 | 20483 ft | 268 kts | 242° |
| 2026-05-05 17:25 | 57.47313 | -0.96678 | 20055 ft | 267 kts | 242° |
| 2026-05-05 17:25 | 57.46663 | -0.98593 | 19765 ft | 266 kts | 242° |
| 2026-05-05 17:25 | 57.45351 | -1.02461 | 19180 ft | 266 kts | 242° |
| 2026-05-05 17:25 | 57.44376 | -1.05330 | 18750 ft | 265 kts | 242° |
| 2026-05-05 17:26 | 57.43398 | -1.08201 | 18303 ft | 266 kts | 242° |
| 2026-05-05 17:26 | 57.42405 | -1.11119 | 17784 ft | 268 kts | 242° |
| 2026-05-05 17:26 | 57.41423 | -1.14000 | 17316 ft | 268 kts | 242° |
| 2026-05-05 17:26 | 57.40416 | -1.16944 | 16861 ft | 268 kts | 242° |
| 2026-05-05 17:27 | 57.39433 | -1.19816 | 16426 ft | 267 kts | 242° |
| 2026-05-05 17:27 | 57.38438 | -1.22720 | 15983 ft | 266 kts | 242° |
| 2026-05-05 17:27 | 57.37461 | -1.25569 | 15551 ft | 266 kts | 242° |
| 2026-05-05 17:27 | 57.36459 | -1.28485 | 15109 ft | 265 kts | 242° |
| 2026-05-05 17:28 | 57.35480 | -1.31333 | 14676 ft | 264 kts | 242° |
| 2026-05-05 17:28 | 57.34490 | -1.34206 | 14241 ft | 264 kts | 243° |
| 2026-05-05 17:28 | 57.33520 | -1.37022 | 13824 ft | 263 kts | 242° |
| 2026-05-05 17:28 | 57.32534 | -1.39879 | 13394 ft | 263 kts | 242° |
| 2026-05-05 17:29 | 57.31549 | -1.42733 | 12960 ft | 263 kts | 242° |
| 2026-05-05 17:29 | 57.30572 | -1.45556 | 12532 ft | 263 kts | 242° |
| 2026-05-05 17:29 | 57.29597 | -1.48374 | 12096 ft | 263 kts | 242° |
| 2026-05-05 17:29 | 57.28605 | -1.51234 | 11659 ft | 262 kts | 242° |
| 2026-05-05 17:30 | 57.27632 | -1.54035 | 11231 ft | 262 kts | 242° |
| 2026-05-05 17:30 | 57.26973 | -1.55933 | 10941 ft | 261 kts | 242° |
| 2026-05-05 17:30 | 57.26012 | -1.58696 | 10521 ft | 261 kts | 242° |
| 2026-05-05 17:30 | 57.25111 | -1.61284 | 10128 ft | 260 kts | 242° |
| 2026-05-05 17:31 | 57.24169 | -1.63985 | 9717 ft | 260 kts | 242° |
| 2026-05-05 17:31 | 57.23187 | -1.66800 | 9288 ft | 260 kts | 241° |
| 2026-05-05 17:31 | 57.22290 | -1.69367 | 8895 ft | 260 kts | 240° |
| 2026-05-05 17:31 | 57.21305 | -1.72183 | 8465 ft | 260 kts | 240° |
| 2026-05-05 17:32 | 57.20323 | -1.74989 | 8035 ft | 260 kts | 240° |
| 2026-05-05 17:32 | 57.19342 | -1.77788 | 7607 ft | 260 kts | 241° |
| 2026-05-05 17:32 | 57.18412 | -1.80438 | 7201 ft | 260 kts | 240° |
| 2026-05-05 17:32 | 57.17426 | -1.83242 | 6769 ft | 260 kts | 241° |
| 2026-05-05 17:33 | 57.16451 | -1.86014 | 6353 ft | 260 kts | 240° |
| 2026-05-05 17:33 | 57.15465 | -1.88813 | 5916 ft | 257 kts | 240° |
| 2026-05-05 17:33 | 57.14514 | -1.91492 | 5510 ft | 250 kts | 240° |
| 2026-05-05 17:33 | 57.13576 | -1.94136 | 5093 ft | 243 kts | 240° |
| 2026-05-05 17:34 | 57.12671 | -1.96687 | 4699 ft | 236 kts | 240° |
| 2026-05-05 17:34 | 57.11789 | -1.99170 | 4339 ft | 229 kts | 240° |
| 2026-05-05 17:34 | 57.10934 | -2.01584 | 3967 ft | 227 kts | 240° |
| 2026-05-05 17:34 | 57.10070 | -2.04038 | 3604 ft | 230 kts | 240° |
| 2026-05-05 17:35 | 57.09237 | -2.06541 | 3105 ft | 236 kts | 248° |
| 2026-05-05 17:35 | 57.08957 | -2.09513 | 2452 ft | 240 kts | 273° |
| 2026-05-05 17:35 | 57.08792 | -2.12556 | 1922 ft | 232 kts | 277° |
| 2026-05-05 17:35 | 57.09346 | -2.14870 | 2096 ft | 192 kts | 322° |
| 2026-05-05 17:36 | 57.10519 | -2.15645 | 1975 ft | 178 kts | 7° |
| 2026-05-05 17:36 | 57.11625 | -2.14859 | 1916 ft | 165 kts | 25° |
| 2026-05-05 17:36 | 57.12655 | -2.14242 | 1681 ft | 152 kts | 3° |
| 2026-05-05 17:36 | 57.13650 | -2.14710 | 1496 ft | 146 kts | 338° |
| 2026-05-05 17:37 | 57.14542 | -2.15541 | 1323 ft | 142 kts | 338° |
| 2026-05-05 17:37 | 57.15142 | -2.16031 | 1191 ft | 137 kts | 338° |
| 2026-05-05 17:37 | 57.16285 | -2.16882 | 894 ft | 130 kts | 340° |
| 2026-05-05 17:37 | 57.17096 | -2.17501 | 683 ft | 123 kts | 341° |
| 2026-05-05 17:38 | 57.17892 | -2.18065 | 536 ft | 122 kts | 341° |
| 2026-05-05 17:38 | 57.18664 | -2.18628 | 414 ft | 119 kts | 340° |
| 2026-05-05 17:38 | 57.19433 | -2.19210 | 267 ft | 119 kts | 339° |
| 2026-05-05 17:38 | 57.20137 | -2.19733 | 210 ft | 83 kts | 336° |
| 2026-05-05 17:39 | 57.20504 | -2.20010 | 211 ft | 28 kts | 340° |
| 2026-05-05 17:39 | 57.20593 | -2.20112 | 212 ft | 8 kts | 276° |
| 2026-05-05 17:39 | 57.20562 | -2.20189 | 214 ft | 5 kts | 203° |
| 2026-05-05 17:39 | 57.20509 | -2.20174 | 214 ft | 10 kts | 169° |
| 2026-05-05 17:40 | 57.20422 | -2.20174 | 214 ft | 14 kts | 192° |
| 2026-05-05 17:40 | 57.20340 | -2.20297 | 216 ft | 14 kts | 208° |
| 2026-05-05 17:40 | 57.20232 | -2.20250 | 215 ft | 16 kts | 159° |
| 2026-05-05 17:40 | 57.20136 | -2.20178 | 214 ft | 5 kts | 158° |
| 2026-05-05 17:41 | 57.20112 | -2.20229 | 215 ft | 7 kts | 249° |
| 2026-05-05 17:41 | 57.20104 | -2.20267 | 216 ft | 0 kts | 248° |